sensor_id;sensor_type;location;lat;lon;timestamp;P1;durP1;ratioP1;P2;durP2;ratioP2
24439;SDS011;12618;54.386;18.394;2023-03-23T00:02:24;25.00;;;20.00;;
24439;SDS011;12618;54.386;18.394;2023-03-23T00:04:56;29.30;;;21.70;;
24439;SDS011;12618;54.386;18.394;2023-03-23T00:07:26;27.30;;;21.50;;
24439;SDS011;12618;54.386;18.394;2023-03-23T00:09:57;25.50;;;20.30;;
24439;SDS011;12618;54.386;18.394;2023-03-23T00:12:29;26.00;;;20.30;;
24439;SDS011;12618;54.386;18.394;2023-03-23T00:15:05;25.30;;;19.80;;
24439;SDS011;12618;54.386;18.394;2023-03-23T00:17:38;24.60;;;18.30;;
24439;SDS011;12618;54.386;18.394;2023-03-23T00:20:10;23.00;;;18.80;;
24439;SDS011;12618;54.386;18.394;2023-03-23T00:22:42;24.60;;;18.20;;
24439;SDS011;12618;54.386;18.394;2023-03-23T00:25:13;21.90;;;16.80;;
24439;SDS011;12618;54.386;18.394;2023-03-23T00:27:46;24.00;;;18.10;;
24439;SDS011;12618;54.386;18.394;2023-03-23T00:30:17;22.90;;;17.80;;
24439;SDS011;12618;54.386;18.394;2023-03-23T00:32:47;23.30;;;17.30;;
24439;SDS011;12618;54.386;18.394;2023-03-23T00:35:18;24.20;;;17.60;;
24439;SDS011;12618;54.386;18.394;2023-03-23T00:37:49;21.70;;;17.70;;
24439;SDS011;12618;54.386;18.394;2023-03-23T00:40:20;22.20;;;16.90;;
24439;SDS011;12618;54.386;18.394;2023-03-23T00:42:51;22.00;;;17.10;;
24439;SDS011;12618;54.386;18.394;2023-03-23T00:45:23;22.50;;;17.30;;
24439;SDS011;12618;54.386;18.394;2023-03-23T00:47:55;22.90;;;16.80;;
24439;SDS011;12618;54.386;18.394;2023-03-23T00:50:26;19.20;;;15.30;;
24439;SDS011;12618;54.386;18.394;2023-03-23T00:53:01;20.70;;;16.50;;
24439;SDS011;12618;54.386;18.394;2023-03-23T00:55:31;20.20;;;16.30;;
24439;SDS011;12618;54.386;18.394;2023-03-23T00:58:03;20.00;;;15.60;;
24439;SDS011;12618;54.386;18.394;2023-03-23T01:00:34;20.70;;;15.80;;
24439;SDS011;12618;54.386;18.394;2023-03-23T01:03:06;23.70;;;18.40;;
24439;SDS011;12618;54.386;18.394;2023-03-23T01:05:39;22.60;;;17.10;;
24439;SDS011;12618;54.386;18.394;2023-03-23T01:08:12;25.10;;;18.40;;
24439;SDS011;12618;54.386;18.394;2023-03-23T01:10:46;29.70;;;20.00;;
24439;SDS011;12618;54.386;18.394;2023-03-23T01:13:18;28.50;;;19.60;;
24439;SDS011;12618;54.386;18.394;2023-03-23T01:15:48;27.80;;;18.50;;
24439;SDS011;12618;54.386;18.394;2023-03-23T01:18:19;24.50;;;17.70;;
24439;SDS011;12618;54.386;18.394;2023-03-23T01:20:49;25.70;;;18.10;;
24439;SDS011;12618;54.386;18.394;2023-03-23T01:23:20;25.80;;;18.00;;
24439;SDS011;12618;54.386;18.394;2023-03-23T01:25:50;24.70;;;18.40;;
24439;SDS011;12618;54.386;18.394;2023-03-23T01:28:23;24.80;;;19.60;;
24439;SDS011;12618;54.386;18.394;2023-03-23T01:30:58;25.80;;;18.90;;
24439;SDS011;12618;54.386;18.394;2023-03-23T01:33:36;22.90;;;18.20;;
24439;SDS011;12618;54.386;18.394;2023-03-23T01:36:10;21.40;;;17.20;;
24439;SDS011;12618;54.386;18.394;2023-03-23T01:38:50;21.60;;;16.90;;
24439;SDS011;12618;54.386;18.394;2023-03-23T01:41:21;25.00;;;18.00;;
24439;SDS011;12618;54.386;18.394;2023-03-23T01:46:25;23.30;;;17.30;;
24439;SDS011;12618;54.386;18.394;2023-03-23T01:48:57;23.80;;;17.50;;
24439;SDS011;12618;54.386;18.394;2023-03-23T01:51:40;20.90;;;15.90;;
24439;SDS011;12618;54.386;18.394;2023-03-23T01:54:17;22.10;;;17.90;;
24439;SDS011;12618;54.386;18.394;2023-03-23T01:56:52;22.40;;;16.50;;
24439;SDS011;12618;54.386;18.394;2023-03-23T01:59:27;21.40;;;16.10;;
24439;SDS011;12618;54.386;18.394;2023-03-23T02:01:59;21.40;;;17.20;;
24439;SDS011;12618;54.386;18.394;2023-03-23T02:04:30;19.10;;;15.60;;
24439;SDS011;12618;54.386;18.394;2023-03-23T02:07:03;21.20;;;16.50;;
24439;SDS011;12618;54.386;18.394;2023-03-23T02:09:34;21.30;;;16.50;;
24439;SDS011;12618;54.386;18.394;2023-03-23T02:12:05;19.80;;;16.10;;
24439;SDS011;12618;54.386;18.394;2023-03-23T02:14:36;21.00;;;15.90;;
24439;SDS011;12618;54.386;18.394;2023-03-23T02:25:54;18.90;;;14.80;;
24439;SDS011;12618;54.386;18.394;2023-03-23T02:28:46;18.60;;;15.20;;
24439;SDS011;12618;54.386;18.394;2023-03-23T02:31:43;18.70;;;15.20;;
24439;SDS011;12618;54.386;18.394;2023-03-23T02:34:38;19.70;;;16.10;;
24439;SDS011;12618;54.386;18.394;2023-03-23T02:37:21;20.60;;;16.20;;
24439;SDS011;12618;54.386;18.394;2023-03-23T02:42:48;20.10;;;16.20;;
24439;SDS011;12618;54.386;18.394;2023-03-23T02:45:21;20.70;;;15.80;;
24439;SDS011;12618;54.386;18.394;2023-03-23T02:47:56;20.50;;;15.60;;
24439;SDS011;12618;54.386;18.394;2023-03-23T02:50:27;19.90;;;15.70;;
24439;SDS011;12618;54.386;18.394;2023-03-23T02:53:00;19.30;;;15.10;;
24439;SDS011;12618;54.386;18.394;2023-03-23T02:55:32;17.90;;;15.10;;
24439;SDS011;12618;54.386;18.394;2023-03-23T02:58:05;20.70;;;14.80;;
24439;SDS011;12618;54.386;18.394;2023-03-23T03:00:35;20.60;;;15.50;;
24439;SDS011;12618;54.386;18.394;2023-03-23T03:03:09;19.90;;;15.40;;
24439;SDS011;12618;54.386;18.394;2023-03-23T03:08:53;21.10;;;15.20;;
24439;SDS011;12618;54.386;18.394;2023-03-23T03:11:29;19.10;;;14.90;;
24439;SDS011;12618;54.386;18.394;2023-03-23T03:14:04;18.60;;;14.70;;
24439;SDS011;12618;54.386;18.394;2023-03-23T03:17:23;18.90;;;14.90;;
24439;SDS011;12618;54.386;18.394;2023-03-23T03:19:41;17.00;;;14.10;;
24439;SDS011;12618;54.386;18.394;2023-03-23T03:22:16;16.80;;;13.90;;
24439;SDS011;12618;54.386;18.394;2023-03-23T03:24:50;18.80;;;14.60;;
24439;SDS011;12618;54.386;18.394;2023-03-23T03:27:22;20.50;;;15.10;;
24439;SDS011;12618;54.386;18.394;2023-03-23T03:29:57;18.80;;;14.40;;
24439;SDS011;12618;54.386;18.394;2023-03-23T03:32:31;18.20;;;13.80;;
24439;SDS011;12618;54.386;18.394;2023-03-23T03:35:08;16.50;;;13.70;;
24439;SDS011;12618;54.386;18.394;2023-03-23T03:37:39;18.80;;;13.80;;
24439;SDS011;12618;54.386;18.394;2023-03-23T03:40:11;18.70;;;14.20;;
24439;SDS011;12618;54.386;18.394;2023-03-23T03:42:46;15.30;;;12.90;;
24439;SDS011;12618;54.386;18.394;2023-03-23T03:45:18;17.30;;;13.50;;
24439;SDS011;12618;54.386;18.394;2023-03-23T03:47:50;17.60;;;13.00;;
24439;SDS011;12618;54.386;18.394;2023-03-23T03:50:20;16.70;;;13.30;;
24439;SDS011;12618;54.386;18.394;2023-03-23T03:52:51;18.40;;;14.10;;
24439;SDS011;12618;54.386;18.394;2023-03-23T03:55:22;19.40;;;13.60;;
24439;SDS011;12618;54.386;18.394;2023-03-23T03:57:54;16.10;;;12.90;;
24439;SDS011;12618;54.386;18.394;2023-03-23T04:00:25;16.40;;;13.10;;
24439;SDS011;12618;54.386;18.394;2023-03-23T04:02:55;15.80;;;13.40;;
24439;SDS011;12618;54.386;18.394;2023-03-23T04:05:26;18.40;;;14.30;;
24439;SDS011;12618;54.386;18.394;2023-03-23T04:07:58;18.10;;;14.50;;
24439;SDS011;12618;54.386;18.394;2023-03-23T04:10:32;18.80;;;14.50;;
24439;SDS011;12618;54.386;18.394;2023-03-23T04:13:03;17.70;;;13.90;;
24439;SDS011;12618;54.386;18.394;2023-03-23T04:15:37;17.70;;;14.40;;
24439;SDS011;12618;54.386;18.394;2023-03-23T04:18:09;19.20;;;13.70;;
24439;SDS011;12618;54.386;18.394;2023-03-23T04:20:39;19.50;;;14.30;;
24439;SDS011;12618;54.386;18.394;2023-03-23T04:23:10;16.80;;;13.40;;
24439;SDS011;12618;54.386;18.394;2023-03-23T04:25:40;16.60;;;13.00;;
24439;SDS011;12618;54.386;18.394;2023-03-23T04:28:13;16.60;;;13.00;;
24439;SDS011;12618;54.386;18.394;2023-03-23T04:30:46;17.20;;;13.60;;
24439;SDS011;12618;54.386;18.394;2023-03-23T04:33:19;17.60;;;13.60;;
24439;SDS011;12618;54.386;18.394;2023-03-23T04:35:51;17.80;;;13.10;;
24439;SDS011;12618;54.386;18.394;2023-03-23T04:38:23;17.10;;;12.90;;
24439;SDS011;12618;54.386;18.394;2023-03-23T04:40:54;15.80;;;13.20;;
24439;SDS011;12618;54.386;18.394;2023-03-23T04:43:26;16.10;;;12.90;;
24439;SDS011;12618;54.386;18.394;2023-03-23T04:45:57;17.10;;;13.00;;
24439;SDS011;12618;54.386;18.394;2023-03-23T04:48:30;19.10;;;13.20;;
24439;SDS011;12618;54.386;18.394;2023-03-23T04:51:03;15.70;;;12.40;;
24439;SDS011;12618;54.386;18.394;2023-03-23T04:53:34;17.00;;;12.80;;
24439;SDS011;12618;54.386;18.394;2023-03-23T04:56:06;15.30;;;12.70;;
24439;SDS011;12618;54.386;18.394;2023-03-23T04:58:37;18.40;;;12.70;;
24439;SDS011;12618;54.386;18.394;2023-03-23T05:01:09;16.60;;;12.10;;
24439;SDS011;12618;54.386;18.394;2023-03-23T05:03:40;15.80;;;12.50;;
24439;SDS011;12618;54.386;18.394;2023-03-23T05:06:11;14.20;;;11.60;;
24439;SDS011;12618;54.386;18.394;2023-03-23T05:08:41;15.70;;;12.00;;
24439;SDS011;12618;54.386;18.394;2023-03-23T05:11:12;15.40;;;11.50;;
24439;SDS011;12618;54.386;18.394;2023-03-23T05:13:43;17.10;;;11.80;;
24439;SDS011;12618;54.386;18.394;2023-03-23T05:16:14;14.40;;;11.60;;
24439;SDS011;12618;54.386;18.394;2023-03-23T05:18:44;13.80;;;11.10;;
24439;SDS011;12618;54.386;18.394;2023-03-23T05:21:16;14.70;;;11.80;;
24439;SDS011;12618;54.386;18.394;2023-03-23T05:23:46;17.00;;;12.40;;
24439;SDS011;12618;54.386;18.394;2023-03-23T05:26:17;18.00;;;12.50;;
24439;SDS011;12618;54.386;18.394;2023-03-23T05:28:47;13.90;;;10.90;;
24439;SDS011;12618;54.386;18.394;2023-03-23T05:31:22;15.50;;;11.20;;
24439;SDS011;12618;54.386;18.394;2023-03-23T05:33:54;15.90;;;11.20;;
24439;SDS011;12618;54.386;18.394;2023-03-23T05:36:25;13.30;;;10.50;;
24439;SDS011;12618;54.386;18.394;2023-03-23T05:38:55;13.20;;;10.20;;
24439;SDS011;12618;54.386;18.394;2023-03-23T05:41:26;13.10;;;10.10;;
24439;SDS011;12618;54.386;18.394;2023-03-23T05:43:57;15.70;;;10.60;;
24439;SDS011;12618;54.386;18.394;2023-03-23T05:46:28;13.50;;;11.10;;
24439;SDS011;12618;54.386;18.394;2023-03-23T05:48:59;13.50;;;10.10;;
24439;SDS011;12618;54.386;18.394;2023-03-23T05:51:30;14.90;;;10.60;;
24439;SDS011;12618;54.386;18.394;2023-03-23T05:54:00;13.00;;;10.20;;
24439;SDS011;12618;54.386;18.394;2023-03-23T05:56:34;12.10;;;10.30;;
24439;SDS011;12618;54.386;18.394;2023-03-23T05:59:05;13.70;;;10.40;;
24439;SDS011;12618;54.386;18.394;2023-03-23T06:01:36;11.50;;;9.80;;
24439;SDS011;12618;54.386;18.394;2023-03-23T06:04:08;13.90;;;9.90;;
24439;SDS011;12618;54.386;18.394;2023-03-23T06:06:39;13.20;;;9.90;;
24439;SDS011;12618;54.386;18.394;2023-03-23T06:09:11;13.60;;;10.10;;
24439;SDS011;12618;54.386;18.394;2023-03-23T06:11:42;13.20;;;10.30;;
24439;SDS011;12618;54.386;18.394;2023-03-23T06:14:13;14.00;;;10.40;;
24439;SDS011;12618;54.386;18.394;2023-03-23T06:16:43;16.30;;;11.00;;
24439;SDS011;12618;54.386;18.394;2023-03-23T06:19:14;14.90;;;10.70;;
24439;SDS011;12618;54.386;18.394;2023-03-23T06:21:45;13.70;;;10.00;;
24439;SDS011;12618;54.386;18.394;2023-03-23T06:24:16;13.20;;;10.00;;
24439;SDS011;12618;54.386;18.394;2023-03-23T06:26:46;10.90;;;9.50;;
24439;SDS011;12618;54.386;18.394;2023-03-23T06:29:17;12.20;;;9.60;;
24439;SDS011;12618;54.386;18.394;2023-03-23T06:31:49;12.00;;;9.20;;
24439;SDS011;12618;54.386;18.394;2023-03-23T06:34:24;12.50;;;8.70;;
24439;SDS011;12618;54.386;18.394;2023-03-23T06:36:55;12.60;;;9.50;;
24439;SDS011;12618;54.386;18.394;2023-03-23T06:39:25;11.50;;;8.80;;
24439;SDS011;12618;54.386;18.394;2023-03-23T06:41:56;12.10;;;8.70;;
24439;SDS011;12618;54.386;18.394;2023-03-23T06:44:27;12.00;;;9.50;;
24439;SDS011;12618;54.386;18.394;2023-03-23T06:46:58;13.30;;;10.30;;
24439;SDS011;12618;54.386;18.394;2023-03-23T06:49:29;13.20;;;9.70;;
24439;SDS011;12618;54.386;18.394;2023-03-23T06:51:59;16.70;;;10.60;;
24439;SDS011;12618;54.386;18.394;2023-03-23T06:54:33;12.60;;;11.10;;
24439;SDS011;12618;54.386;18.394;2023-03-23T06:57:04;13.30;;;10.00;;
24439;SDS011;12618;54.386;18.394;2023-03-23T06:59:35;14.80;;;11.10;;
24439;SDS011;12618;54.386;18.394;2023-03-23T07:02:05;13.30;;;10.00;;
24439;SDS011;12618;54.386;18.394;2023-03-23T07:04:37;12.00;;;9.40;;
24439;SDS011;12618;54.386;18.394;2023-03-23T07:07:08;14.20;;;10.60;;
24439;SDS011;12618;54.386;18.394;2023-03-23T07:09:41;12.90;;;10.30;;
24439;SDS011;12618;54.386;18.394;2023-03-23T07:12:12;13.00;;;9.80;;
24439;SDS011;12618;54.386;18.394;2023-03-23T07:14:44;15.20;;;10.00;;
24439;SDS011;12618;54.386;18.394;2023-03-23T07:17:22;14.00;;;11.00;;
24439;SDS011;12618;54.386;18.394;2023-03-23T07:19:53;11.00;;;9.20;;
24439;SDS011;12618;54.386;18.394;2023-03-23T07:22:24;11.50;;;8.80;;
24439;SDS011;12618;54.386;18.394;2023-03-23T07:24:54;14.00;;;9.10;;
24439;SDS011;12618;54.386;18.394;2023-03-23T07:27:25;11.60;;;9.10;;
24439;SDS011;12618;54.386;18.394;2023-03-23T07:29:56;13.50;;;9.20;;
24439;SDS011;12618;54.386;18.394;2023-03-23T07:32:28;13.90;;;8.60;;
24439;SDS011;12618;54.386;18.394;2023-03-23T07:34:58;12.00;;;8.70;;
24439;SDS011;12618;54.386;18.394;2023-03-23T07:37:29;10.10;;;8.20;;
24439;SDS011;12618;54.386;18.394;2023-03-23T07:40:00;12.30;;;8.90;;
24439;SDS011;12618;54.386;18.394;2023-03-23T07:42:37;12.40;;;8.60;;
24439;SDS011;12618;54.386;18.394;2023-03-23T07:45:08;13.50;;;9.20;;
24439;SDS011;12618;54.386;18.394;2023-03-23T07:47:41;10.80;;;8.70;;
24439;SDS011;12618;54.386;18.394;2023-03-23T07:50:12;10.70;;;8.60;;
24439;SDS011;12618;54.386;18.394;2023-03-23T07:52:46;10.40;;;8.50;;
24439;SDS011;12618;54.386;18.394;2023-03-23T07:55:17;10.10;;;8.30;;
24439;SDS011;12618;54.386;18.394;2023-03-23T07:57:48;10.50;;;8.00;;
24439;SDS011;12618;54.386;18.394;2023-03-23T08:00:19;11.30;;;8.40;;
24439;SDS011;12618;54.386;18.394;2023-03-23T08:02:54;11.20;;;7.70;;
24439;SDS011;12618;54.386;18.394;2023-03-23T08:05:26;8.70;;;7.40;;
24439;SDS011;12618;54.386;18.394;2023-03-23T08:07:57;11.80;;;7.90;;
24439;SDS011;12618;54.386;18.394;2023-03-23T08:10:28;10.60;;;8.00;;
24439;SDS011;12618;54.386;18.394;2023-03-23T08:12:59;13.10;;;8.40;;
24439;SDS011;12618;54.386;18.394;2023-03-23T08:15:30;12.20;;;9.20;;
24439;SDS011;12618;54.386;18.394;2023-03-23T08:18:01;11.70;;;8.30;;
24439;SDS011;12618;54.386;18.394;2023-03-23T08:20:32;13.60;;;8.30;;
24439;SDS011;12618;54.386;18.394;2023-03-23T08:23:03;13.30;;;8.30;;
24439;SDS011;12618;54.386;18.394;2023-03-23T08:25:33;12.80;;;8.70;;
24439;SDS011;12618;54.386;18.394;2023-03-23T08:28:04;13.70;;;9.20;;
24439;SDS011;12618;54.386;18.394;2023-03-23T08:30:35;13.40;;;9.90;;
24439;SDS011;12618;54.386;18.394;2023-03-23T08:33:08;10.90;;;8.40;;
24439;SDS011;12618;54.386;18.394;2023-03-23T08:35:40;10.90;;;8.10;;
24439;SDS011;12618;54.386;18.394;2023-03-23T08:38:11;11.80;;;8.50;;
24439;SDS011;12618;54.386;18.394;2023-03-23T08:40:42;12.70;;;9.00;;
24439;SDS011;12618;54.386;18.394;2023-03-23T08:43:16;11.20;;;9.10;;
24439;SDS011;12618;54.386;18.394;2023-03-23T08:45:47;13.10;;;8.90;;
24439;SDS011;12618;54.386;18.394;2023-03-23T08:48:20;10.50;;;7.00;;
24439;SDS011;12618;54.386;18.394;2023-03-23T08:50:51;10.30;;;7.30;;
24439;SDS011;12618;54.386;18.394;2023-03-23T08:53:24;9.50;;;7.00;;
24439;SDS011;12618;54.386;18.394;2023-03-23T08:55:54;9.00;;;7.20;;
24439;SDS011;12618;54.386;18.394;2023-03-23T08:58:26;9.50;;;7.10;;
24439;SDS011;12618;54.386;18.394;2023-03-23T09:00:56;9.70;;;8.20;;
24439;SDS011;12618;54.386;18.394;2023-03-23T09:03:27;12.60;;;8.30;;
24439;SDS011;12618;54.386;18.394;2023-03-23T09:06:04;12.90;;;7.60;;
24439;SDS011;12618;54.386;18.394;2023-03-23T09:08:39;11.80;;;7.40;;
24439;SDS011;12618;54.386;18.394;2023-03-23T09:11:09;8.90;;;7.10;;
24439;SDS011;12618;54.386;18.394;2023-03-23T09:13:40;9.10;;;7.20;;
24439;SDS011;12618;54.386;18.394;2023-03-23T09:16:11;9.30;;;7.10;;
24439;SDS011;12618;54.386;18.394;2023-03-23T09:18:42;9.60;;;7.70;;
24439;SDS011;12618;54.386;18.394;2023-03-23T09:21:12;9.40;;;7.20;;
24439;SDS011;12618;54.386;18.394;2023-03-23T09:23:43;9.40;;;7.00;;
24439;SDS011;12618;54.386;18.394;2023-03-23T09:26:15;9.70;;;6.40;;
24439;SDS011;12618;54.386;18.394;2023-03-23T09:28:45;8.40;;;6.30;;
24439;SDS011;12618;54.386;18.394;2023-03-23T09:31:16;8.90;;;6.30;;
24439;SDS011;12618;54.386;18.394;2023-03-23T09:33:46;9.30;;;6.50;;
24439;SDS011;12618;54.386;18.394;2023-03-23T09:36:17;9.80;;;6.20;;
24439;SDS011;12618;54.386;18.394;2023-03-23T09:38:51;9.20;;;7.00;;
24439;SDS011;12618;54.386;18.394;2023-03-23T09:41:36;8.80;;;7.10;;
24439;SDS011;12618;54.386;18.394;2023-03-23T09:47:13;7.40;;;5.70;;
24439;SDS011;12618;54.386;18.394;2023-03-23T09:55:35;7.50;;;5.90;;
24439;SDS011;12618;54.386;18.394;2023-03-23T10:00:44;7.50;;;5.20;;
24439;SDS011;12618;54.386;18.394;2023-03-23T10:03:20;6.80;;;5.50;;
24439;SDS011;12618;54.386;18.394;2023-03-23T10:05:55;6.20;;;4.90;;
24439;SDS011;12618;54.386;18.394;2023-03-23T10:08:30;6.60;;;4.80;;
24439;SDS011;12618;54.386;18.394;2023-03-23T10:16:09;5.20;;;4.70;;
24439;SDS011;12618;54.386;18.394;2023-03-23T10:18:44;5.00;;;4.30;;
24439;SDS011;12618;54.386;18.394;2023-03-23T10:21:17;5.30;;;4.60;;
24439;SDS011;12618;54.386;18.394;2023-03-23T10:29:17;5.50;;;5.00;;
24439;SDS011;12618;54.386;18.394;2023-03-23T10:31:54;6.30;;;5.00;;
24439;SDS011;12618;54.386;18.394;2023-03-23T10:37:16;5.90;;;4.80;;
24439;SDS011;12618;54.386;18.394;2023-03-23T10:39:53;4.60;;;4.20;;
24439;SDS011;12618;54.386;18.394;2023-03-23T10:45:44;6.30;;;4.40;;
24439;SDS011;12618;54.386;18.394;2023-03-23T10:47:59;7.80;;;5.80;;
24439;SDS011;12618;54.386;18.394;2023-03-23T10:50:40;5.80;;;4.40;;
24439;SDS011;12618;54.386;18.394;2023-03-23T10:55:51;5.00;;;3.70;;
24439;SDS011;12618;54.386;18.394;2023-03-23T10:58:24;4.50;;;3.90;;
24439;SDS011;12618;54.386;18.394;2023-03-23T11:01:00;4.00;;;3.60;;
24439;SDS011;12618;54.386;18.394;2023-03-23T11:03:42;4.20;;;3.70;;
24439;SDS011;12618;54.386;18.394;2023-03-23T11:09:01;4.70;;;4.00;;
24439;SDS011;12618;54.386;18.394;2023-03-23T11:11:41;5.00;;;3.70;;
24439;SDS011;12618;54.386;18.394;2023-03-23T11:17:02;4.20;;;3.40;;
24439;SDS011;12618;54.386;18.394;2023-03-23T11:19:34;4.40;;;3.10;;
24439;SDS011;12618;54.386;18.394;2023-03-23T11:22:07;4.10;;;3.40;;
24439;SDS011;12618;54.386;18.394;2023-03-23T11:24:44;4.90;;;3.70;;
24439;SDS011;12618;54.386;18.394;2023-03-23T11:27:19;3.80;;;3.30;;
24439;SDS011;12618;54.386;18.394;2023-03-23T11:32:27;4.40;;;3.40;;
24439;SDS011;12618;54.386;18.394;2023-03-23T11:34:59;5.30;;;3.50;;
24439;SDS011;12618;54.386;18.394;2023-03-23T11:37:39;4.30;;;3.80;;
24439;SDS011;12618;54.386;18.394;2023-03-23T11:40:14;4.30;;;3.90;;
24439;SDS011;12618;54.386;18.394;2023-03-23T11:43:30;4.00;;;3.60;;
24439;SDS011;12618;54.386;18.394;2023-03-23T11:51:36;3.50;;;3.20;;
24439;SDS011;12618;54.386;18.394;2023-03-23T11:56:53;3.60;;;3.20;;
24439;SDS011;12618;54.386;18.394;2023-03-23T11:59:29;3.40;;;3.10;;
24439;SDS011;12618;54.386;18.394;2023-03-23T12:16:44;4.80;;;3.00;;
24439;SDS011;12618;54.386;18.394;2023-03-23T12:19:28;4.30;;;3.30;;
24439;SDS011;12618;54.386;18.394;2023-03-23T12:25:12;3.10;;;2.80;;
24439;SDS011;12618;54.386;18.394;2023-03-23T12:30:53;3.30;;;2.70;;
24439;SDS011;12618;54.386;18.394;2023-03-23T12:44:48;4.00;;;2.20;;
24439;SDS011;12618;54.386;18.394;2023-03-23T12:49:59;2.50;;;2.30;;
24439;SDS011;12618;54.386;18.394;2023-03-23T12:53:22;2.50;;;2.30;;
24439;SDS011;12618;54.386;18.394;2023-03-23T12:55:39;3.60;;;2.10;;
24439;SDS011;12618;54.386;18.394;2023-03-23T12:58:23;2.70;;;2.40;;
24439;SDS011;12618;54.386;18.394;2023-03-23T13:01:04;2.90;;;2.30;;
24439;SDS011;12618;54.386;18.394;2023-03-23T13:03:47;2.50;;;2.30;;
24439;SDS011;12618;54.386;18.394;2023-03-23T13:06:35;3.00;;;2.30;;
24439;SDS011;12618;54.386;18.394;2023-03-23T13:11:53;2.50;;;2.30;;
24439;SDS011;12618;54.386;18.394;2023-03-23T13:23:22;3.80;;;2.20;;
24439;SDS011;12618;54.386;18.394;2023-03-23T13:25:59;2.40;;;2.00;;
24439;SDS011;12618;54.386;18.394;2023-03-23T13:31:32;2.50;;;2.30;;
24439;SDS011;12618;54.386;18.394;2023-03-23T13:34:11;3.80;;;2.30;;
24439;SDS011;12618;54.386;18.394;2023-03-23T13:36:57;4.20;;;2.30;;
24439;SDS011;12618;54.386;18.394;2023-03-23T13:49:59;3.40;;;2.70;;
24439;SDS011;12618;54.386;18.394;2023-03-23T13:55:29;2.50;;;2.30;;
24439;SDS011;12618;54.386;18.394;2023-03-23T14:00:34;3.10;;;2.60;;
24439;SDS011;12618;54.386;18.394;2023-03-23T14:03:11;2.50;;;2.30;;
24439;SDS011;12618;54.386;18.394;2023-03-23T14:05:47;3.10;;;2.60;;
24439;SDS011;12618;54.386;18.394;2023-03-23T14:08:22;4.50;;;2.40;;
24439;SDS011;12618;54.386;18.394;2023-03-23T14:16:19;3.10;;;2.50;;
24439;SDS011;12618;54.386;18.394;2023-03-23T14:18:56;3.40;;;2.50;;
24439;SDS011;12618;54.386;18.394;2023-03-23T14:21:40;3.40;;;2.60;;
24439;SDS011;12618;54.386;18.394;2023-03-23T14:24:15;3.80;;;2.70;;
24439;SDS011;12618;54.386;18.394;2023-03-23T14:26:48;3.30;;;2.50;;
24439;SDS011;12618;54.386;18.394;2023-03-23T14:29:22;4.00;;;2.70;;
24439;SDS011;12618;54.386;18.394;2023-03-23T14:31:56;4.80;;;3.00;;
24439;SDS011;12618;54.386;18.394;2023-03-23T14:34:29;3.40;;;2.60;;
24439;SDS011;12618;54.386;18.394;2023-03-23T14:37:01;4.40;;;2.40;;
24439;SDS011;12618;54.386;18.394;2023-03-23T14:39:32;4.80;;;3.10;;
24439;SDS011;12618;54.386;18.394;2023-03-23T14:42:09;4.80;;;2.90;;
24439;SDS011;12618;54.386;18.394;2023-03-23T14:44:48;4.30;;;3.00;;
24439;SDS011;12618;54.386;18.394;2023-03-23T14:47:22;4.60;;;2.60;;
24439;SDS011;12618;54.386;18.394;2023-03-23T14:49:57;5.20;;;3.10;;
24439;SDS011;12618;54.386;18.394;2023-03-23T14:52:33;4.20;;;3.00;;
24439;SDS011;12618;54.386;18.394;2023-03-23T14:55:17;3.70;;;3.00;;
24439;SDS011;12618;54.386;18.394;2023-03-23T14:57:52;4.90;;;3.10;;
24439;SDS011;12618;54.386;18.394;2023-03-23T15:00:28;3.90;;;3.30;;
24439;SDS011;12618;54.386;18.394;2023-03-23T15:03:03;4.00;;;3.10;;
24439;SDS011;12618;54.386;18.394;2023-03-23T15:05:37;5.50;;;3.70;;
24439;SDS011;12618;54.386;18.394;2023-03-23T15:08:34;4.90;;;3.50;;
24439;SDS011;12618;54.386;18.394;2023-03-23T15:11:12;5.40;;;3.70;;
24439;SDS011;12618;54.386;18.394;2023-03-23T15:13:55;4.30;;;3.40;;
24439;SDS011;12618;54.386;18.394;2023-03-23T15:16:30;4.20;;;3.70;;
24439;SDS011;12618;54.386;18.394;2023-03-23T15:19:04;4.20;;;3.40;;
24439;SDS011;12618;54.386;18.394;2023-03-23T15:27:02;5.30;;;3.70;;
24439;SDS011;12618;54.386;18.394;2023-03-23T15:29:54;6.00;;;3.70;;
24439;SDS011;12618;54.386;18.394;2023-03-23T15:32:28;4.90;;;3.60;;
24439;SDS011;12618;54.386;18.394;2023-03-23T15:35:02;4.80;;;3.80;;
24439;SDS011;12618;54.386;18.394;2023-03-23T15:37:35;5.90;;;4.20;;
24439;SDS011;12618;54.386;18.394;2023-03-23T15:40:15;6.30;;;4.00;;
24439;SDS011;12618;54.386;18.394;2023-03-23T15:42:48;4.60;;;3.70;;
24439;SDS011;12618;54.386;18.394;2023-03-23T15:45:27;5.70;;;4.00;;
24439;SDS011;12618;54.386;18.394;2023-03-23T15:48:04;5.60;;;3.80;;
24439;SDS011;12618;54.386;18.394;2023-03-23T15:50:41;5.30;;;3.90;;
24439;SDS011;12618;54.386;18.394;2023-03-23T15:56:11;5.30;;;3.50;;
24439;SDS011;12618;54.386;18.394;2023-03-23T15:58:43;4.60;;;3.90;;
24439;SDS011;12618;54.386;18.394;2023-03-23T16:01:20;6.50;;;4.20;;
24439;SDS011;12618;54.386;18.394;2023-03-23T16:06:25;4.50;;;4.10;;
24439;SDS011;12618;54.386;18.394;2023-03-23T16:08:58;5.30;;;4.20;;
24439;SDS011;12618;54.386;18.394;2023-03-23T16:11:35;5.50;;;4.20;;
24439;SDS011;12618;54.386;18.394;2023-03-23T16:14:07;5.00;;;4.20;;
24439;SDS011;12618;54.386;18.394;2023-03-23T16:16:40;5.30;;;4.10;;
24439;SDS011;12618;54.386;18.394;2023-03-23T16:19:20;6.20;;;4.40;;
24439;SDS011;12618;54.386;18.394;2023-03-23T16:21:53;5.80;;;4.20;;
24439;SDS011;12618;54.386;18.394;2023-03-23T16:24:25;5.10;;;4.60;;
24439;SDS011;12618;54.386;18.394;2023-03-23T16:26:56;7.80;;;5.10;;
24439;SDS011;12618;54.386;18.394;2023-03-23T16:29:27;6.10;;;5.00;;
24439;SDS011;12618;54.386;18.394;2023-03-23T16:32:18;10.10;;;6.40;;
24439;SDS011;12618;54.386;18.394;2023-03-23T16:34:49;5.60;;;3.10;;
24439;SDS011;12618;54.386;18.394;2023-03-23T16:37:22;4.20;;;2.00;;
24439;SDS011;12618;54.386;18.394;2023-03-23T16:39:53;4.10;;;1.50;;
24439;SDS011;12618;54.386;18.394;2023-03-23T16:42:24;4.20;;;1.90;;
24439;SDS011;12618;54.386;18.394;2023-03-23T16:44:56;3.60;;;1.90;;
24439;SDS011;12618;54.386;18.394;2023-03-23T16:47:32;6.70;;;2.60;;
24439;SDS011;12618;54.386;18.394;2023-03-23T16:50:07;4.20;;;2.50;;
24439;SDS011;12618;54.386;18.394;2023-03-23T16:52:41;3.40;;;2.80;;
24439;SDS011;12618;54.386;18.394;2023-03-23T16:55:16;4.10;;;2.40;;
24439;SDS011;12618;54.386;18.394;2023-03-23T16:57:47;4.90;;;3.20;;
24439;SDS011;12618;54.386;18.394;2023-03-23T17:00:19;7.40;;;4.00;;
24439;SDS011;12618;54.386;18.394;2023-03-23T17:02:50;7.10;;;4.40;;
24439;SDS011;12618;54.386;18.394;2023-03-23T17:05:23;4.30;;;2.60;;
24439;SDS011;12618;54.386;18.394;2023-03-23T17:07:57;3.80;;;2.70;;
24439;SDS011;12618;54.386;18.394;2023-03-23T17:10:29;5.20;;;3.50;;
24439;SDS011;12618;54.386;18.394;2023-03-23T17:13:01;6.30;;;4.50;;
24439;SDS011;12618;54.386;18.394;2023-03-23T17:15:37;10.10;;;5.80;;
24439;SDS011;12618;54.386;18.394;2023-03-23T17:18:17;7.50;;;5.50;;
24439;SDS011;12618;54.386;18.394;2023-03-23T17:20:48;8.60;;;5.70;;
24439;SDS011;12618;54.386;18.394;2023-03-23T17:23:22;7.30;;;4.40;;
24439;SDS011;12618;54.386;18.394;2023-03-23T17:25:53;7.40;;;5.20;;